sensor_id;sensor_type;location;lat;lon;timestamp;temperature;humidity
16271;DHT22;8243;49.048;8.396;2022-09-12T00:00:32;13.90;99.90
16271;DHT22;8243;49.048;8.396;2022-09-12T00:02:58;13.90;99.90
16271;DHT22;8243;49.048;8.396;2022-09-12T00:05:25;13.90;99.90
16271;DHT22;8243;49.048;8.396;2022-09-12T00:07:50;13.80;99.90
16271;DHT22;8243;49.048;8.396;2022-09-12T00:10:16;13.70;99.90
16271;DHT22;8243;49.048;8.396;2022-09-12T00:12:42;13.70;99.90
16271;DHT22;8243;49.048;8.396;2022-09-12T00:15:08;13.70;99.90
16271;DHT22;8243;49.048;8.396;2022-09-12T00:17:36;13.70;99.90
16271;DHT22;8243;49.048;8.396;2022-09-12T00:20:03;13.60;99.90
16271;DHT22;8243;49.048;8.396;2022-09-12T00:22:29;13.60;99.90
16271;DHT22;8243;49.048;8.396;2022-09-12T00:24:55;13.60;99.90
16271;DHT22;8243;49.048;8.396;2022-09-12T00:27:20;13.50;99.90
16271;DHT22;8243;49.048;8.396;2022-09-12T00:29:46;13.40;99.90
16271;DHT22;8243;49.048;8.396;2022-09-12T00:32:12;13.40;99.90
16271;DHT22;8243;49.048;8.396;2022-09-12T00:34:37;13.40;99.90
16271;DHT22;8243;49.048;8.396;2022-09-12T00:37:03;13.40;99.90
16271;DHT22;8243;49.048;8.396;2022-09-12T00:39:31;13.50;99.90
16271;DHT22;8243;49.048;8.396;2022-09-12T00:41:57;13.50;99.90
16271;DHT22;8243;49.048;8.396;2022-09-12T00:49:28;13.30;99.90
16271;DHT22;8243;49.048;8.396;2022-09-12T00:52:09;13.30;99.90
16271;DHT22;8243;49.048;8.396;2022-09-12T00:54:46;13.30;99.90
16271;DHT22;8243;49.048;8.396;2022-09-12T00:57:13;13.30;99.90
16271;DHT22;8243;49.048;8.396;2022-09-12T00:59:58;13.40;99.90
16271;DHT22;8243;49.048;8.396;2022-09-12T01:02:26;13.40;99.90
16271;DHT22;8243;49.048;8.396;2022-09-12T01:04:52;13.40;99.90
16271;DHT22;8243;49.048;8.396;2022-09-12T01:07:18;13.40;99.90
16271;DHT22;8243;49.048;8.396;2022-09-12T01:09:45;13.30;99.90
16271;DHT22;8243;49.048;8.396;2022-09-12T01:12:12;13.20;99.90
16271;DHT22;8243;49.048;8.396;2022-09-12T01:14:38;13.20;99.90
16271;DHT22;8243;49.048;8.396;2022-09-12T01:17:04;13.20;99.90
16271;DHT22;8243;49.048;8.396;2022-09-12T01:30:20;13.10;99.90
16271;DHT22;8243;49.048;8.396;2022-09-12T01:39:00;13.10;99.90
16271;DHT22;8243;49.048;8.396;2022-09-12T01:41:52;13.10;99.90
16271;DHT22;8243;49.048;8.396;2022-09-12T01:52:19;13.00;99.90
16271;DHT22;8243;49.048;8.396;2022-09-12T01:54:50;13.00;99.90
16271;DHT22;8243;49.048;8.396;2022-09-12T01:57:31;13.00;99.90
16271;DHT22;8243;49.048;8.396;2022-09-12T02:00:03;13.00;99.90
16271;DHT22;8243;49.048;8.396;2022-09-12T02:02:42;13.00;99.90
16271;DHT22;8243;49.048;8.396;2022-09-12T02:05:26;13.00;99.90
16271;DHT22;8243;49.048;8.396;2022-09-12T02:08:02;13.10;99.90
16271;DHT22;8243;49.048;8.396;2022-09-12T02:10:33;13.10;99.90
16271;DHT22;8243;49.048;8.396;2022-09-12T02:13:07;13.10;99.90
16271;DHT22;8243;49.048;8.396;2022-09-12T02:15:43;13.00;99.90
16271;DHT22;8243;49.048;8.396;2022-09-12T02:18:12;13.00;99.90
16271;DHT22;8243;49.048;8.396;2022-09-12T02:20:44;12.90;99.90
16271;DHT22;8243;49.048;8.396;2022-09-12T02:23:26;12.90;99.90
16271;DHT22;8243;49.048;8.396;2022-09-12T02:26:11;12.90;99.90
16271;DHT22;8243;49.048;8.396;2022-09-12T02:28:41;13.00;99.90
16271;DHT22;8243;49.048;8.396;2022-09-12T02:34:05;12.90;99.90
16271;DHT22;8243;49.048;8.396;2022-09-12T02:37:16;12.80;99.90
16271;DHT22;8243;49.048;8.396;2022-09-12T02:39:42;12.80;99.90
16271;DHT22;8243;49.048;8.396;2022-09-12T02:42:08;12.80;99.90
16271;DHT22;8243;49.048;8.396;2022-09-12T02:44:34;12.80;99.90
16271;DHT22;8243;49.048;8.396;2022-09-12T02:47:11;12.80;99.90
16271;DHT22;8243;49.048;8.396;2022-09-12T02:49:39;12.70;99.90
16271;DHT22;8243;49.048;8.396;2022-09-12T02:52:05;12.60;99.90
16271;DHT22;8243;49.048;8.396;2022-09-12T02:54:31;12.60;99.90
16271;DHT22;8243;49.048;8.396;2022-09-12T02:56:57;12.60;99.90
16271;DHT22;8243;49.048;8.396;2022-09-12T02:59:23;12.60;99.90
16271;DHT22;8243;49.048;8.396;2022-09-12T03:02:01;12.60;99.90
16271;DHT22;8243;49.048;8.396;2022-09-12T03:04:52;12.60;99.90
16271;DHT22;8243;49.048;8.396;2022-09-12T03:10:02;12.60;99.90
16271;DHT22;8243;49.048;8.396;2022-09-12T03:12:39;12.50;99.90
16271;DHT22;8243;49.048;8.396;2022-09-12T03:18:23;12.50;99.90
16271;DHT22;8243;49.048;8.396;2022-09-12T03:23:41;12.50;99.90
16271;DHT22;8243;49.048;8.396;2022-09-12T03:26:31;12.50;99.90
16271;DHT22;8243;49.048;8.396;2022-09-12T03:29:01;12.40;99.90
16271;DHT22;8243;49.048;8.396;2022-09-12T03:31:27;12.40;99.90
16271;DHT22;8243;49.048;8.396;2022-09-12T03:33:53;12.30;99.90
16271;DHT22;8243;49.048;8.396;2022-09-12T03:36:22;12.30;99.90
16271;DHT22;8243;49.048;8.396;2022-09-12T03:38:48;12.20;99.90
16271;DHT22;8243;49.048;8.396;2022-09-12T03:41:14;12.20;99.90
16271;DHT22;8243;49.048;8.396;2022-09-12T03:43:40;12.10;99.90
16271;DHT22;8243;49.048;8.396;2022-09-12T03:46:06;12.10;99.90
16271;DHT22;8243;49.048;8.396;2022-09-12T03:48:31;12.10;99.90
16271;DHT22;8243;49.048;8.396;2022-09-12T03:51:05;12.10;99.90
16271;DHT22;8243;49.048;8.396;2022-09-12T03:53:31;12.10;99.90
16271;DHT22;8243;49.048;8.396;2022-09-12T03:55:57;12.10;99.90
16271;DHT22;8243;49.048;8.396;2022-09-12T03:58:23;12.10;99.90
16271;DHT22;8243;49.048;8.396;2022-09-12T04:00:49;12.20;99.90
16271;DHT22;8243;49.048;8.396;2022-09-12T04:03:15;12.10;99.90
16271;DHT22;8243;49.048;8.396;2022-09-12T04:05:40;12.10;99.90
16271;DHT22;8243;49.048;8.396;2022-09-12T04:08:06;12.00;99.90
16271;DHT22;8243;49.048;8.396;2022-09-12T04:10:31;12.00;99.90
16271;DHT22;8243;49.048;8.396;2022-09-12T04:12:57;12.00;99.90
16271;DHT22;8243;49.048;8.396;2022-09-12T04:15:23;12.00;99.90
16271;DHT22;8243;49.048;8.396;2022-09-12T04:17:48;11.90;99.90
16271;DHT22;8243;49.048;8.396;2022-09-12T04:20:14;11.80;99.90
16271;DHT22;8243;49.048;8.396;2022-09-12T04:22:39;11.70;99.90
16271;DHT22;8243;49.048;8.396;2022-09-12T04:25:06;11.70;99.90
16271;DHT22;8243;49.048;8.396;2022-09-12T04:27:32;11.60;99.90
16271;DHT22;8243;49.048;8.396;2022-09-12T04:29:58;11.60;99.90
16271;DHT22;8243;49.048;8.396;2022-09-12T04:32:24;11.60;99.90
16271;DHT22;8243;49.048;8.396;2022-09-12T04:34:50;11.60;99.90
16271;DHT22;8243;49.048;8.396;2022-09-12T04:37:17;11.60;99.90
16271;DHT22;8243;49.048;8.396;2022-09-12T04:39:42;11.60;99.90
16271;DHT22;8243;49.048;8.396;2022-09-12T04:42:08;11.60;99.90
16271;DHT22;8243;49.048;8.396;2022-09-12T04:44:34;11.50;99.90
16271;DHT22;8243;49.048;8.396;2022-09-12T04:46:59;11.50;99.90
16271;DHT22;8243;49.048;8.396;2022-09-12T04:49:25;11.50;99.90
16271;DHT22;8243;49.048;8.396;2022-09-12T04:51:52;11.50;99.90
16271;DHT22;8243;49.048;8.396;2022-09-12T04:54:19;11.50;99.90
16271;DHT22;8243;49.048;8.396;2022-09-12T04:56:46;11.50;99.90
16271;DHT22;8243;49.048;8.396;2022-09-12T04:59:14;11.50;99.90
16271;DHT22;8243;49.048;8.396;2022-09-12T05:01:40;11.50;99.90
16271;DHT22;8243;49.048;8.396;2022-09-12T05:04:06;11.50;99.90
16271;DHT22;8243;49.048;8.396;2022-09-12T05:06:34;11.50;99.90
16271;DHT22;8243;49.048;8.396;2022-09-12T05:09:01;11.50;99.90
16271;DHT22;8243;49.048;8.396;2022-09-12T05:11:32;11.50;99.90
16271;DHT22;8243;49.048;8.396;2022-09-12T05:13:58;11.50;99.90
16271;DHT22;8243;49.048;8.396;2022-09-12T05:16:25;11.50;99.90
16271;DHT22;8243;49.048;8.396;2022-09-12T05:18:52;11.50;99.90
16271;DHT22;8243;49.048;8.396;2022-09-12T05:21:19;11.50;99.90
16271;DHT22;8243;49.048;8.396;2022-09-12T05:23:46;11.50;99.90
16271;DHT22;8243;49.048;8.396;2022-09-12T05:26:14;11.60;99.90
16271;DHT22;8243;49.048;8.396;2022-09-12T05:28:40;11.60;99.90
16271;DHT22;8243;49.048;8.396;2022-09-12T05:31:09;11.60;99.90
16271;DHT22;8243;49.048;8.396;2022-09-12T05:33:36;11.70;99.90
16271;DHT22;8243;49.048;8.396;2022-09-12T05:36:04;11.70;99.90
16271;DHT22;8243;49.048;8.396;2022-09-12T05:38:31;11.80;99.90
16271;DHT22;8243;49.048;8.396;2022-09-12T05:41:24;11.80;99.90
16271;DHT22;8243;49.048;8.396;2022-09-12T05:43:54;12.00;99.90
16271;DHT22;8243;49.048;8.396;2022-09-12T05:46:23;12.70;99.90
16271;DHT22;8243;49.048;8.396;2022-09-12T05:48:50;13.60;99.90
16271;DHT22;8243;49.048;8.396;2022-09-12T05:51:19;14.70;99.90
16271;DHT22;8243;49.048;8.396;2022-09-12T05:53:50;15.70;99.90
16271;DHT22;8243;49.048;8.396;2022-09-12T05:56:19;16.20;99.90
16271;DHT22;8243;49.048;8.396;2022-09-12T05:58:47;16.50;99.90
16271;DHT22;8243;49.048;8.396;2022-09-12T06:01:17;16.70;99.90
16271;DHT22;8243;49.048;8.396;2022-09-12T06:03:51;17.30;99.90
16271;DHT22;8243;49.048;8.396;2022-09-12T06:06:20;17.70;99.90
16271;DHT22;8243;49.048;8.396;2022-09-12T06:08:49;18.30;99.90
16271;DHT22;8243;49.048;8.396;2022-09-12T06:11:17;18.90;99.90
16271;DHT22;8243;49.048;8.396;2022-09-12T06:13:43;19.20;97.00
16271;DHT22;8243;49.048;8.396;2022-09-12T06:16:14;19.20;92.80
16271;DHT22;8243;49.048;8.396;2022-09-12T06:18:40;19.60;86.10
16271;DHT22;8243;49.048;8.396;2022-09-12T06:21:08;20.20;80.40
16271;DHT22;8243;49.048;8.396;2022-09-12T06:23:38;19.90;72.40
16271;DHT22;8243;49.048;8.396;2022-09-12T06:26:06;20.30;68.30
16271;DHT22;8243;49.048;8.396;2022-09-12T06:28:34;20.30;64.30
16271;DHT22;8243;49.048;8.396;2022-09-12T06:31:02;20.30;61.70
16271;DHT22;8243;49.048;8.396;2022-09-12T06:33:30;20.60;57.30
16271;DHT22;8243;49.048;8.396;2022-09-12T06:36:02;20.20;57.00
16271;DHT22;8243;49.048;8.396;2022-09-12T06:38:28;20.50;55.70
16271;DHT22;8243;49.048;8.396;2022-09-12T06:40:54;20.30;55.30
16271;DHT22;8243;49.048;8.396;2022-09-12T06:43:21;20.30;56.70
16271;DHT22;8243;49.048;8.396;2022-09-12T06:45:50;20.90;49.50
16271;DHT22;8243;49.048;8.396;2022-09-12T06:48:15;20.80;49.30
16271;DHT22;8243;49.048;8.396;2022-09-12T06:50:41;21.40;47.80
16271;DHT22;8243;49.048;8.396;2022-09-12T06:53:07;22.00;40.90
16271;DHT22;8243;49.048;8.396;2022-09-12T06:55:32;22.10;39.20
16271;DHT22;8243;49.048;8.396;2022-09-12T06:57:59;21.90;40.50
16271;DHT22;8243;49.048;8.396;2022-09-12T07:00:24;22.60;35.50
16271;DHT22;8243;49.048;8.396;2022-09-12T07:02:54;23.30;32.40
16271;DHT22;8243;49.048;8.396;2022-09-12T07:05:21;23.20;31.50
16271;DHT22;8243;49.048;8.396;2022-09-12T07:07:47;23.60;30.80
16271;DHT22;8243;49.048;8.396;2022-09-12T07:10:13;24.30;27.60
16271;DHT22;8243;49.048;8.396;2022-09-12T07:12:38;24.70;24.80
16271;DHT22;8243;49.048;8.396;2022-09-12T07:15:04;24.40;24.80
16271;DHT22;8243;49.048;8.396;2022-09-12T07:17:30;24.20;24.60
16271;DHT22;8243;49.048;8.396;2022-09-12T07:20:00;24.40;24.20
16271;DHT22;8243;49.048;8.396;2022-09-12T07:22:36;24.80;24.00
16271;DHT22;8243;49.048;8.396;2022-09-12T07:25:02;24.30;23.60
16271;DHT22;8243;49.048;8.396;2022-09-12T07:27:29;24.80;22.50
16271;DHT22;8243;49.048;8.396;2022-09-12T07:29:55;24.10;23.00
16271;DHT22;8243;49.048;8.396;2022-09-12T07:32:20;24.00;23.10
16271;DHT22;8243;49.048;8.396;2022-09-12T07:34:47;24.20;23.10
16271;DHT22;8243;49.048;8.396;2022-09-12T07:37:14;24.40;22.80
16271;DHT22;8243;49.048;8.396;2022-09-12T07:39:39;23.70;24.20
16271;DHT22;8243;49.048;8.396;2022-09-12T07:42:05;23.20;25.90
16271;DHT22;8243;49.048;8.396;2022-09-12T07:44:31;22.80;27.70
16271;DHT22;8243;49.048;8.396;2022-09-12T07:46:57;22.70;28.90
16271;DHT22;8243;49.048;8.396;2022-09-12T07:49:23;22.50;30.60
16271;DHT22;8243;49.048;8.396;2022-09-12T07:51:48;22.70;31.20
16271;DHT22;8243;49.048;8.396;2022-09-12T07:54:14;23.50;27.70
16271;DHT22;8243;49.048;8.396;2022-09-12T07:56:40;24.20;26.00
16271;DHT22;8243;49.048;8.396;2022-09-12T07:59:23;25.10;23.30
16271;DHT22;8243;49.048;8.396;2022-09-12T08:01:49;25.20;22.90
16271;DHT22;8243;49.048;8.396;2022-09-12T08:04:14;26.10;20.20
16271;DHT22;8243;49.048;8.396;2022-09-12T08:06:40;26.00;20.90
16271;DHT22;8243;49.048;8.396;2022-09-12T08:09:06;26.80;19.20
16271;DHT22;8243;49.048;8.396;2022-09-12T08:11:32;26.70;19.20
16271;DHT22;8243;49.048;8.396;2022-09-12T08:13:58;26.30;19.30
16271;DHT22;8243;49.048;8.396;2022-09-12T08:16:26;25.80;19.70
16271;DHT22;8243;49.048;8.396;2022-09-12T08:18:52;26.00;20.70
16271;DHT22;8243;49.048;8.396;2022-09-12T08:21:23;26.20;19.10
16271;DHT22;8243;49.048;8.396;2022-09-12T08:24:01;26.30;19.50
16271;DHT22;8243;49.048;8.396;2022-09-12T08:26:27;26.40;19.50
16271;DHT22;8243;49.048;8.396;2022-09-12T08:28:53;26.30;19.70
16271;DHT22;8243;49.048;8.396;2022-09-12T08:31:21;25.80;19.50
16271;DHT22;8243;49.048;8.396;2022-09-12T08:33:47;26.20;19.90
16271;DHT22;8243;49.048;8.396;2022-09-12T08:36:15;26.30;19.90
16271;DHT22;8243;49.048;8.396;2022-09-12T08:38:43;26.90;18.50
16271;DHT22;8243;49.048;8.396;2022-09-12T08:49:14;27.60;16.90
16271;DHT22;8243;49.048;8.396;2022-09-12T08:51:45;27.60;17.60
16271;DHT22;8243;49.048;8.396;2022-09-12T08:54:29;27.00;17.10
16271;DHT22;8243;49.048;8.396;2022-09-12T08:57:00;26.80;17.90
16271;DHT22;8243;49.048;8.396;2022-09-12T08:59:37;26.60;19.10
16271;DHT22;8243;49.048;8.396;2022-09-12T09:05:03;27.20;18.80
16271;DHT22;8243;49.048;8.396;2022-09-12T09:13:31;27.90;16.20
16271;DHT22;8243;49.048;8.396;2022-09-12T09:16:46;26.90;17.70
16271;DHT22;8243;49.048;8.396;2022-09-12T09:19:27;27.10;17.80
16271;DHT22;8243;49.048;8.396;2022-09-12T09:21:58;27.20;18.50
16271;DHT22;8243;49.048;8.396;2022-09-12T09:24:37;27.90;17.30
16271;DHT22;8243;49.048;8.396;2022-09-12T09:27:10;27.90;16.90
16271;DHT22;8243;49.048;8.396;2022-09-12T09:29:42;27.20;17.30
16271;DHT22;8243;49.048;8.396;2022-09-12T09:32:20;26.50;19.80
16271;DHT22;8243;49.048;8.396;2022-09-12T09:34:47;27.30;18.40
16271;DHT22;8243;49.048;8.396;2022-09-12T09:45:21;25.90;20.50
16271;DHT22;8243;49.048;8.396;2022-09-12T09:48:03;26.00;21.30
16271;DHT22;8243;49.048;8.396;2022-09-12T09:50:32;26.60;19.70
16271;DHT22;8243;49.048;8.396;2022-09-12T09:52:59;26.80;19.90
16271;DHT22;8243;49.048;8.396;2022-09-12T09:55:31;27.40;18.50
16271;DHT22;8243;49.048;8.396;2022-09-12T09:57:58;27.30;19.50
16271;DHT22;8243;49.048;8.396;2022-09-12T10:00:31;27.70;18.40
16271;DHT22;8243;49.048;8.396;2022-09-12T10:05:51;27.00;19.30
16271;DHT22;8243;49.048;8.396;2022-09-12T10:08:24;27.20;20.00
16271;DHT22;8243;49.048;8.396;2022-09-12T10:10:58;27.70;18.00
16271;DHT22;8243;49.048;8.396;2022-09-12T10:13:38;27.90;18.40
16271;DHT22;8243;49.048;8.396;2022-09-12T10:16:28;27.70;16.70
16271;DHT22;8243;49.048;8.396;2022-09-12T10:18:53;27.90;18.60
16271;DHT22;8243;49.048;8.396;2022-09-12T10:21:24;27.90;18.60
16271;DHT22;8243;49.048;8.396;2022-09-12T10:26:35;27.80;16.70
16271;DHT22;8243;49.048;8.396;2022-09-12T10:29:09;27.20;17.60
16271;DHT22;8243;49.048;8.396;2022-09-12T10:31:46;26.50;20.60
16271;DHT22;8243;49.048;8.396;2022-09-12T10:34:28;26.80;19.60
16271;DHT22;8243;49.048;8.396;2022-09-12T10:37:09;26.80;19.50
16271;DHT22;8243;49.048;8.396;2022-09-12T10:39:36;26.50;20.60
16271;DHT22;8243;49.048;8.396;2022-09-12T10:42:03;26.80;20.90
16271;DHT22;8243;49.048;8.396;2022-09-12T10:44:32;26.70;20.50
16271;DHT22;8243;49.048;8.396;2022-09-12T10:47:18;26.80;19.90
16271;DHT22;8243;49.048;8.396;2022-09-12T10:49:44;26.20;19.40
16271;DHT22;8243;49.048;8.396;2022-09-12T10:52:21;26.20;20.30
16271;DHT22;8243;49.048;8.396;2022-09-12T10:54:48;25.80;18.80
16271;DHT22;8243;49.048;8.396;2022-09-12T11:00:17;25.80;21.50
16271;DHT22;8243;49.048;8.396;2022-09-12T11:11:30;26.30;19.70
16271;DHT22;8243;49.048;8.396;2022-09-12T11:30:16;25.50;17.80
16271;DHT22;8243;49.048;8.396;2022-09-12T11:33:13;25.50;18.90
16271;DHT22;8243;49.048;8.396;2022-09-12T11:35:50;25.90;18.40
16271;DHT22;8243;49.048;8.396;2022-09-12T11:41:29;25.90;15.20
16271;DHT22;8243;49.048;8.396;2022-09-12T11:46:38;25.80;15.40
16271;DHT22;8243;49.048;8.396;2022-09-12T11:52:02;26.50;15.80
16271;DHT22;8243;49.048;8.396;2022-09-12T12:02:27;25.70;18.20
16271;DHT22;8243;49.048;8.396;2022-09-12T12:08:00;26.10;17.30
16271;DHT22;8243;49.048;8.396;2022-09-12T12:10:34;26.40;16.30
16271;DHT22;8243;49.048;8.396;2022-09-12T12:13:04;27.10;15.30
16271;DHT22;8243;49.048;8.396;2022-09-12T12:15:34;27.40;14.80
16271;DHT22;8243;49.048;8.396;2022-09-12T12:18:06;27.20;13.40
16271;DHT22;8243;49.048;8.396;2022-09-12T12:20:33;26.90;13.90
16271;DHT22;8243;49.048;8.396;2022-09-12T12:22:59;26.50;13.10
16271;DHT22;8243;49.048;8.396;2022-09-12T12:25:38;26.30;13.40
16271;DHT22;8243;49.048;8.396;2022-09-12T12:28:04;26.20;13.60
16271;DHT22;8243;49.048;8.396;2022-09-12T12:36:00;26.00;13.50
16271;DHT22;8243;49.048;8.396;2022-09-12T12:47:22;26.30;12.50
16271;DHT22;8243;49.048;8.396;2022-09-12T12:52:52;26.60;11.90
16271;DHT22;8243;49.048;8.396;2022-09-12T13:01:03;27.00;11.50
16271;DHT22;8243;49.048;8.396;2022-09-12T13:03:31;27.00;11.90
16271;DHT22;8243;49.048;8.396;2022-09-12T13:06:06;27.20;11.50
16271;DHT22;8243;49.048;8.396;2022-09-12T13:08:34;27.60;9.50
16271;DHT22;8243;49.048;8.396;2022-09-12T13:11:07;27.60;10.40
16271;DHT22;8243;49.048;8.396;2022-09-12T13:13:48;27.90;9.70
16271;DHT22;8243;49.048;8.396;2022-09-12T13:16:39;28.10;10.10
16271;DHT22;8243;49.048;8.396;2022-09-12T13:19:28;27.80;11.50
16271;DHT22;8243;49.048;8.396;2022-09-12T13:22:02;27.70;10.20
16271;DHT22;8243;49.048;8.396;2022-09-12T13:24:28;26.90;11.60
16271;DHT22;8243;49.048;8.396;2022-09-12T13:26:54;26.90;11.70
16271;DHT22;8243;49.048;8.396;2022-09-12T13:29:24;27.30;12.40
16271;DHT22;8243;49.048;8.396;2022-09-12T13:31:54;27.30;10.70
16271;DHT22;8243;49.048;8.396;2022-09-12T13:34:26;27.30;12.00
16271;DHT22;8243;49.048;8.396;2022-09-12T13:39:47;27.20;12.00
16271;DHT22;8243;49.048;8.396;2022-09-12T13:42:38;27.30;12.60
16271;DHT22;8243;49.048;8.396;2022-09-12T13:45:12;27.30;11.20
16271;DHT22;8243;49.048;8.396;2022-09-12T13:47:43;27.00;12.00
16271;DHT22;8243;49.048;8.396;2022-09-12T13:50:23;26.90;13.80
16271;DHT22;8243;49.048;8.396;2022-09-12T13:52:57;26.80;13.90
16271;DHT22;8243;49.048;8.396;2022-09-12T13:57:58;27.00;13.10
16271;DHT22;8243;49.048;8.396;2022-09-12T14:00:24;27.20;12.40
16271;DHT22;8243;49.048;8.396;2022-09-12T14:02:50;27.00;12.60
16271;DHT22;8243;49.048;8.396;2022-09-12T14:05:37;27.00;11.90
16271;DHT22;8243;49.048;8.396;2022-09-12T14:08:07;27.00;12.20
16271;DHT22;8243;49.048;8.396;2022-09-12T14:10:36;26.80;12.20
16271;DHT22;8243;49.048;8.396;2022-09-12T14:13:08;26.80;12.60
16271;DHT22;8243;49.048;8.396;2022-09-12T14:15:36;26.90;10.80
16271;DHT22;8243;49.048;8.396;2022-09-12T14:18:04;26.80;10.30
16271;DHT22;8243;49.048;8.396;2022-09-12T14:20:31;26.80;11.70
16271;DHT22;8243;49.048;8.396;2022-09-12T14:23:17;27.00;11.80
16271;DHT22;8243;49.048;8.396;2022-09-12T14:25:45;27.00;12.10
16271;DHT22;8243;49.048;8.396;2022-09-12T14:28:13;26.80;12.10
16271;DHT22;8243;49.048;8.396;2022-09-12T14:30:59;26.90;11.90
16271;DHT22;8243;49.048;8.396;2022-09-12T14:33:26;27.00;12.70
16271;DHT22;8243;49.048;8.396;2022-09-12T14:36:07;26.90;12.20
16271;DHT22;8243;49.048;8.396;2022-09-12T14:38:43;27.00;12.00
16271;DHT22;8243;49.048;8.396;2022-09-12T14:41:13;27.10;11.90
16271;DHT22;8243;49.048;8.396;2022-09-12T14:43:55;27.10;12.40
16271;DHT22;8243;49.048;8.396;2022-09-12T14:46:42;27.30;11.80
16271;DHT22;8243;49.048;8.396;2022-09-12T14:49:18;27.10;11.90
16271;DHT22;8243;49.048;8.396;2022-09-12T14:51:56;27.30;11.40
16271;DHT22;8243;49.048;8.396;2022-09-12T14:56:54;27.00;11.70
16271;DHT22;8243;49.048;8.396;2022-09-12T14:59:25;27.00;11.80
16271;DHT22;8243;49.048;8.396;2022-09-12T15:07:35;27.20;11.70
16271;DHT22;8243;49.048;8.396;2022-09-12T15:10:20;27.20;11.40
16271;DHT22;8243;49.048;8.396;2022-09-12T15:12:47;27.00;12.00
16271;DHT22;8243;49.048;8.396;2022-09-12T15:15:16;27.00;11.80
16271;DHT22;8243;49.048;8.396;2022-09-12T15:17:41;27.00;12.00
16271;DHT22;8243;49.048;8.396;2022-09-12T15:20:07;26.90;11.10
16271;DHT22;8243;49.048;8.396;2022-09-12T15:22:33;26.70;12.00
16271;DHT22;8243;49.048;8.396;2022-09-12T15:25:00;26.80;11.80
16271;DHT22;8243;49.048;8.396;2022-09-12T15:27:25;26.90;12.10
16271;DHT22;8243;49.048;8.396;2022-09-12T15:29:52;26.80;12.20
16271;DHT22;8243;49.048;8.396;2022-09-12T15:32:25;26.80;12.30
16271;DHT22;8243;49.048;8.396;2022-09-12T15:34:52;26.90;12.30
16271;DHT22;8243;49.048;8.396;2022-09-12T15:37:19;26.90;12.00
16271;DHT22;8243;49.048;8.396;2022-09-12T15:39:45;26.90;11.80
16271;DHT22;8243;49.048;8.396;2022-09-12T15:42:15;26.80;11.90
16271;DHT22;8243;49.048;8.396;2022-09-12T15:44:41;26.60;11.90
16271;DHT22;8243;49.048;8.396;2022-09-12T15:47:11;26.40;11.60
16271;DHT22;8243;49.048;8.396;2022-09-12T15:49:38;26.40;11.90
16271;DHT22;8243;49.048;8.396;2022-09-12T15:52:05;26.10;11.60
16271;DHT22;8243;49.048;8.396;2022-09-12T15:54:30;26.00;11.80
16271;DHT22;8243;49.048;8.396;2022-09-12T15:56:56;25.90;12.20
16271;DHT22;8243;49.048;8.396;2022-09-12T15:59:21;25.80;12.50
16271;DHT22;8243;49.048;8.396;2022-09-12T16:01:47;25.90;12.70
16271;DHT22;8243;49.048;8.396;2022-09-12T16:04:31;26.00;13.00
16271;DHT22;8243;49.048;8.396;2022-09-12T16:06:57;25.90;12.70
16271;DHT22;8243;49.048;8.396;2022-09-12T16:09:23;25.90;12.70
16271;DHT22;8243;49.048;8.396;2022-09-12T16:11:49;25.90;12.70
16271;DHT22;8243;49.048;8.396;2022-09-12T16:14:17;25.80;12.90
16271;DHT22;8243;49.048;8.396;2022-09-12T16:16:53;25.70;13.40
16271;DHT22;8243;49.048;8.396;2022-09-12T16:19:20;25.60;13.80
16271;DHT22;8243;49.048;8.396;2022-09-12T16:21:47;25.60;14.20
16271;DHT22;8243;49.048;8.396;2022-09-12T16:24:12;25.50;14.10
16271;DHT22;8243;49.048;8.396;2022-09-12T16:26:38;25.40;14.10
16271;DHT22;8243;49.048;8.396;2022-09-12T16:29:04;25.50;14.60
16271;DHT22;8243;49.048;8.396;2022-09-12T16:31:32;25.40;14.20
16271;DHT22;8243;49.048;8.396;2022-09-12T16:33:58;25.40;14.10
16271;DHT22;8243;49.048;8.396;2022-09-12T16:36:24;25.30;14.10
16271;DHT22;8243;49.048;8.396;2022-09-12T16:38:51;25.20;14.40
16271;DHT22;8243;49.048;8.396;2022-09-12T16:41:20;25.20;14.30
16271;DHT22;8243;49.048;8.396;2022-09-12T16:43:46;25.10;14.60
16271;DHT22;8243;49.048;8.396;2022-09-12T16:46:24;25.00;15.20
16271;DHT22;8243;49.048;8.396;2022-09-12T16:48:55;25.00;15.40
16271;DHT22;8243;49.048;8.396;2022-09-12T16:51:23;24.80;15.70
16271;DHT22;8243;49.048;8.396;2022-09-12T16:53:49;24.70;15.70
16271;DHT22;8243;49.048;8.396;2022-09-12T16:56:15;24.70;16.10
16271;DHT22;8243;49.048;8.396;2022-09-12T16:58:41;24.60;16.60
16271;DHT22;8243;49.048;8.396;2022-09-12T17:01:13;24.60;16.90
16271;DHT22;8243;49.048;8.396;2022-09-12T17:03:39;24.50;16.60
16271;DHT22;8243;49.048;8.396;2022-09-12T17:06:07;24.50;16.90
16271;DHT22;8243;49.048;8.396;2022-09-12T17:08:35;24.40;17.20
16271;DHT22;8243;49.048;8.396;2022-09-12T17:11:08;24.30;17.70
16271;DHT22;8243;49.048;8.396;2022-09-12T17:13:34;24.20;17.10
16271;DHT22;8243;49.048;8.396;2022-09-12T17:16:04;24.10;17.40
16271;DHT22;8243;49.048;8.396;2022-09-12T17:18:35;24.10;17.60
16271;DHT22;8243;49.048;8.396;2022-09-12T17:21:04;24.00;17.80
16271;DHT22;8243;49.048;8.396;2022-09-12T17:23:30;23.90;17.70
16271;DHT22;8243;49.048;8.396;2022-09-12T17:25:58;23.80;17.90
16271;DHT22;8243;49.048;8.396;2022-09-12T17:28:24;23.70;18.50
16271;DHT22;8243;49.048;8.396;2022-09-12T17:30:57;23.60;18.60
16271;DHT22;8243;49.048;8.396;2022-09-12T17:33:24;23.60;19.10
16271;DHT22;8243;49.048;8.396;2022-09-12T17:35:50;23.40;19.50
16271;DHT22;8243;49.048;8.396;2022-09-12T17:38:16;23.20;19.80
16271;DHT22;8243;49.048;8.396;2022-09-12T17:40:41;23.10;21.60
16271;DHT22;8243;49.048;8.396;2022-09-12T17:43:08;22.90;21.80
16271;DHT22;8243;49.048;8.396;2022-09-12T17:45:36;22.70;23.60
16271;DHT22;8243;49.048;8.396;2022-09-12T17:48:03;22.50;26.20
16271;DHT22;8243;49.048;8.396;2022-09-12T17:50:33;22.20;26.70
16271;DHT22;8243;49.048;8.396;2022-09-12T17:52:59;22.00;28.40
16271;DHT22;8243;49.048;8.396;2022-09-12T17:55:25;21.80;29.60
16271;DHT22;8243;49.048;8.396;2022-09-12T17:57:50;21.60;30.00
16271;DHT22;8243;49.048;8.396;2022-09-12T18:00:16;21.40;30.10
16271;DHT22;8243;49.048;8.396;2022-09-12T18:02:42;21.10;34.60
16271;DHT22;8243;49.048;8.396;2022-09-12T18:05:07;20.80;36.90
16271;DHT22;8243;49.048;8.396;2022-09-12T18:07:34;20.70;43.10
16271;DHT22;8243;49.048;8.396;2022-09-12T18:10:01;20.70;48.30
16271;DHT22;8243;49.048;8.396;2022-09-12T18:12:26;20.60;54.70
16271;DHT22;8243;49.048;8.396;2022-09-12T18:14:52;20.50;57.10
16271;DHT22;8243;49.048;8.396;2022-09-12T18:17:17;20.40;61.40
16271;DHT22;8243;49.048;8.396;2022-09-12T18:19:43;20.10;66.20
16271;DHT22;8243;49.048;8.396;2022-09-12T18:22:09;20.00;70.80
16271;DHT22;8243;49.048;8.396;2022-09-12T18:24:35;19.90;67.70
16271;DHT22;8243;49.048;8.396;2022-09-12T18:27:01;19.70;66.30
16271;DHT22;8243;49.048;8.396;2022-09-12T18:29:28;19.70;70.80
16271;DHT22;8243;49.048;8.396;2022-09-12T18:31:54;19.60;75.10
16271;DHT22;8243;49.048;8.396;2022-09-12T18:34:20;19.50;81.00
16271;DHT22;8243;49.048;8.396;2022-09-12T18:36:47;19.30;82.20
16271;DHT22;8243;49.048;8.396;2022-09-12T18:39:15;19.30;90.90